YJN weather

St Jean Airport
St Jean, Quebec, Canada

Public forecast

Using degrees Celsius for public forecast. Weather courtesy of forecast.io.

Closest aviation weather report (METAR) to St Jean Airport

Closest report is MontrĂ©al / Saint-Hubert Airport, 14.6 nm (27.0 km) NNW. Retrieved 2019/10/20 04:00 UTC (35 minutes ago):

CYHU 200400Z AUTO 21002KT 9SM CLR 02/00 A3004 RMK SLP174

Closest aviation forecast (TAF) to St Jean Airport

Closest forecast is MontrĂ©al / Saint-Hubert Airport, 14.6 nm (27.0 km) NNW. Retrieved 2019-10-20 00:42 UTC (4 hours ago):

TAF TAF CYHU 192338Z 2000/2024 21007KT P6SM FEW180 SCT240 FM200300 VRB03KT P6SM SKC FM200700 05005KT 6SM BR SKC PROB30 2007/2013 1/2SM FG VV002 FM201300 07006KT P6SM FEW008 SCT170 FM201600 10007KT P6SM SCT200 RMK FCST BASED ON AUTO OBS NXT FCST BY 200600Z